sensor_id;sensor_type;location;lat;lon;timestamp;pressure;altitude;pressure_sealevel;temperature;humidity
69836;BME280;57132;51.972;4.450;2023-02-16T00:01:49;102308.84;;;4.98;100.00
69836;BME280;57132;51.972;4.450;2023-02-16T00:04:18;102309.66;;;5.02;100.00
69836;BME280;57132;51.972;4.450;2023-02-16T00:06:45;102299.06;;;5.03;100.00
69836;BME280;57132;51.972;4.450;2023-02-16T00:09:10;102299.06;;;5.03;100.00
69836;BME280;57132;51.972;4.450;2023-02-16T00:11:36;102297.41;;;4.99;100.00
69836;BME280;57132;51.972;4.450;2023-02-16T00:14:21;102301.03;;;4.95;100.00
69836;BME280;57132;51.972;4.450;2023-02-16T00:16:48;102287.81;;;4.93;100.00
69836;BME280;57132;51.972;4.450;2023-02-16T00:21:40;102293.22;;;4.89;100.00
69836;BME280;57132;51.972;4.450;2023-02-16T00:24:06;102301.16;;;4.89;100.00
69836;BME280;57132;51.972;4.450;2023-02-16T00:26:33;102292.38;;;4.87;100.00
69836;BME280;57132;51.972;4.450;2023-02-16T00:28:59;102300.41;;;4.84;100.00
69836;BME280;57132;51.972;4.450;2023-02-16T00:31:25;102300.47;;;4.81;100.00
69836;BME280;57132;51.972;4.450;2023-02-16T00:33:52;102287.28;;;4.79;100.00
69836;BME280;57132;51.972;4.450;2023-02-16T00:36:17;102289.13;;;4.76;100.00
69836;BME280;57132;51.972;4.450;2023-02-16T00:38:44;102290.06;;;4.73;100.00
69836;BME280;57132;51.972;4.450;2023-02-16T00:41:21;102284.78;;;4.73;100.00
69836;BME280;57132;51.972;4.450;2023-02-16T00:44:12;102282.06;;;4.75;100.00
69836;BME280;57132;51.972;4.450;2023-02-16T00:46:39;102281.25;;;4.73;100.00
69836;BME280;57132;51.972;4.450;2023-02-16T00:49:04;102283.00;;;4.74;100.00
69836;BME280;57132;51.972;4.450;2023-02-16T00:51:29;102278.63;;;4.73;100.00
69836;BME280;57132;51.972;4.450;2023-02-16T00:53:55;102284.78;;;4.73;100.00
69836;BME280;57132;51.972;4.450;2023-02-16T00:56:20;102277.69;;;4.75;100.00
69836;BME280;57132;51.972;4.450;2023-02-16T00:58:48;102274.06;;;4.78;100.00
69836;BME280;57132;51.972;4.450;2023-02-16T01:01:16;102274.00;;;4.81;100.00
69836;BME280;57132;51.972;4.450;2023-02-16T01:03:43;102279.31;;;4.81;100.00
69836;BME280;57132;51.972;4.450;2023-02-16T01:06:09;102275.75;;;4.82;100.00
69836;BME280;57132;51.972;4.450;2023-02-16T01:08:55;102273.94;;;4.84;100.00
69836;BME280;57132;51.972;4.450;2023-02-16T01:11:44;102271.19;;;4.87;100.00
69836;BME280;57132;51.972;4.450;2023-02-16T01:14:11;102269.47;;;4.86;100.00
69836;BME280;57132;51.972;4.450;2023-02-16T01:16:40;102272.00;;;4.90;100.00
69836;BME280;57132;51.972;4.450;2023-02-16T01:19:05;102264.97;;;4.91;100.00
69836;BME280;57132;51.972;4.450;2023-02-16T01:21:31;102272.00;;;4.90;100.00
69836;BME280;57132;51.972;4.450;2023-02-16T01:23:56;102254.38;;;4.91;100.00
69836;BME280;57132;51.972;4.450;2023-02-16T01:26:21;102267.56;;;4.92;100.00
69836;BME280;57132;51.972;4.450;2023-02-16T01:28:48;102262.22;;;4.94;100.00
69836;BME280;57132;51.972;4.450;2023-02-16T01:31:14;102268.34;;;4.96;100.00
69836;BME280;57132;51.972;4.450;2023-02-16T01:33:40;102261.34;;;4.95;100.00
69836;BME280;57132;51.972;4.450;2023-02-16T01:36:18;102264.00;;;4.93;100.00
69836;BME280;57132;51.972;4.450;2023-02-16T01:38:47;102256.97;;;4.92;100.00
69836;BME280;57132;51.972;4.450;2023-02-16T01:44:16;102260.44;;;4.94;100.00
69836;BME280;57132;51.972;4.450;2023-02-16T01:46:59;102260.41;;;4.96;100.00
69836;BME280;57132;51.972;4.450;2023-02-16T01:49:25;102265.72;;;4.96;100.00
69836;BME280;57132;51.972;4.450;2023-02-16T01:52:04;102256.03;;;4.95;100.00
69836;BME280;57132;51.972;4.450;2023-02-16T01:54:39;102254.22;;;4.97;100.00
69836;BME280;57132;51.972;4.450;2023-02-16T02:02:26;102255.19;;;4.93;100.00
69836;BME280;57132;51.972;4.450;2023-02-16T02:04:58;102256.09;;;4.92;100.00
69836;BME280;57132;51.972;4.450;2023-02-16T02:10:25;102248.19;;;4.90;100.00
69836;BME280;57132;51.972;4.450;2023-02-16T02:13:00;102252.63;;;4.90;100.00
69836;BME280;57132;51.972;4.450;2023-02-16T02:15:30;102251.72;;;4.91;100.00
69836;BME280;57132;51.972;4.450;2023-02-16T02:17:55;102245.53;;;4.92;100.00
69836;BME280;57132;51.972;4.450;2023-02-16T02:20:26;102235.75;;;4.94;100.00
69836;BME280;57132;51.972;4.450;2023-02-16T02:23:20;102238.34;;;4.97;100.00
69836;BME280;57132;51.972;4.450;2023-02-16T02:26:17;102234.69;;;5.01;100.00
69836;BME280;57132;51.972;4.450;2023-02-16T02:29:14;102234.63;;;5.04;100.00
69836;BME280;57132;51.972;4.450;2023-02-16T02:31:49;102229.25;;;5.07;100.00
69836;BME280;57132;51.972;4.450;2023-02-16T02:37:10;102218.44;;;5.16;100.00
69836;BME280;57132;51.972;4.450;2023-02-16T02:45:20;102202.41;;;5.23;100.00
69836;BME280;57132;51.972;4.450;2023-02-16T02:47:47;102206.84;;;5.21;100.00
69836;BME280;57132;51.972;4.450;2023-02-16T02:50:35;102210.38;;;5.21;100.00
69836;BME280;57132;51.972;4.450;2023-02-16T02:53:05;102200.63;;;5.22;100.00
69836;BME280;57132;51.972;4.450;2023-02-16T02:55:35;102199.78;;;5.21;100.00
69836;BME280;57132;51.972;4.450;2023-02-16T02:58:23;102210.38;;;5.21;100.00
69836;BME280;57132;51.972;4.450;2023-02-16T03:01:09;102199.78;;;5.21;100.00
69836;BME280;57132;51.972;4.450;2023-02-16T03:03:40;102198.00;;;5.22;100.00
69836;BME280;57132;51.972;4.450;2023-02-16T03:08:44;102184.75;;;5.22;100.00
69836;BME280;57132;51.972;4.450;2023-02-16T03:11:20;102195.31;;;5.23;100.00
69836;BME280;57132;51.972;4.450;2023-02-16T03:14:17;102198.84;;;5.24;100.00
69836;BME280;57132;51.972;4.450;2023-02-16T03:16:46;102204.13;;;5.24;100.00
69836;BME280;57132;51.972;4.450;2023-02-16T03:19:14;102207.69;;;5.23;100.00
69836;BME280;57132;51.972;4.450;2023-02-16T03:22:00;102199.75;;;5.23;100.00
69836;BME280;57132;51.972;4.450;2023-02-16T03:24:45;102197.06;;;5.24;100.00
69836;BME280;57132;51.972;4.450;2023-02-16T03:27:32;102203.22;;;5.25;100.00
69836;BME280;57132;51.972;4.450;2023-02-16T03:30:18;102203.22;;;5.25;100.00
69836;BME280;57132;51.972;4.450;2023-02-16T03:32:46;102201.44;;;5.25;100.00
69836;BME280;57132;51.972;4.450;2023-02-16T03:35:13;102196.13;;;5.27;100.00
69836;BME280;57132;51.972;4.450;2023-02-16T03:37:40;102199.63;;;5.27;100.00
69836;BME280;57132;51.972;4.450;2023-02-16T03:40:08;102195.19;;;5.28;100.00
69836;BME280;57132;51.972;4.450;2023-02-16T03:42:58;102180.22;;;5.27;100.00
69836;BME280;57132;51.972;4.450;2023-02-16T03:45:24;102188.19;;;5.27;100.00
69836;BME280;57132;51.972;4.450;2023-02-16T03:47:50;102181.13;;;5.26;100.00
69836;BME280;57132;51.972;4.450;2023-02-16T03:50:15;102170.53;;;5.26;100.00
69836;BME280;57132;51.972;4.450;2023-02-16T03:52:41;102176.69;;;5.26;100.00
69836;BME280;57132;51.972;4.450;2023-02-16T03:55:07;102167.84;;;5.27;100.00
69836;BME280;57132;51.972;4.450;2023-02-16T03:57:33;102179.25;;;5.31;100.00
69836;BME280;57132;51.972;4.450;2023-02-16T03:59:58;102180.91;;;5.33;100.00
69836;BME280;57132;51.972;4.450;2023-02-16T04:02:26;102186.22;;;5.33;100.00
69836;BME280;57132;51.972;4.450;2023-02-16T04:04:51;102191.56;;;5.32;100.00
69836;BME280;57132;51.972;4.450;2023-02-16T04:07:16;102196.88;;;5.30;100.00
69836;BME280;57132;51.972;4.450;2023-02-16T04:09:42;102194.34;;;5.27;100.00
69836;BME280;57132;51.972;4.450;2023-02-16T04:12:08;102203.16;;;5.26;100.00
69836;BME280;57132;51.972;4.450;2023-02-16T04:14:53;102198.72;;;5.28;100.00
69836;BME280;57132;51.972;4.450;2023-02-16T04:17:19;102195.13;;;5.31;100.00
69836;BME280;57132;51.972;4.450;2023-02-16T04:19:44;102195.84;;;5.36;100.00
69836;BME280;57132;51.972;4.450;2023-02-16T04:22:09;102196.59;;;5.41;100.00
69836;BME280;57132;51.972;4.450;2023-02-16T04:24:35;102194.66;;;5.46;100.00
69836;BME280;57132;51.972;4.450;2023-02-16T04:27:00;102188.38;;;5.50;100.00
69836;BME280;57132;51.972;4.450;2023-02-16T04:29:25;102191.81;;;5.54;100.00
69836;BME280;57132;51.972;4.450;2023-02-16T04:31:51;102189.00;;;5.60;100.00
69836;BME280;57132;51.972;4.450;2023-02-16T04:34:17;102175.63;;;5.64;100.00
69836;BME280;57132;51.972;4.450;2023-02-16T04:36:42;102175.50;;;5.69;100.00
69836;BME280;57132;51.972;4.450;2023-02-16T04:39:08;102176.28;;;5.73;100.00
69836;BME280;57132;51.972;4.450;2023-02-16T04:41:33;102186.88;;;5.73;100.00
69836;BME280;57132;51.972;4.450;2023-02-16T04:43:58;102185.94;;;5.74;100.00
69836;BME280;57132;51.972;4.450;2023-02-16T04:46:24;102180.75;;;5.71;100.00
69836;BME280;57132;51.972;4.450;2023-02-16T04:48:49;102183.41;;;5.71;100.00
69836;BME280;57132;51.972;4.450;2023-02-16T04:51:15;102180.78;;;5.69;100.00
69836;BME280;57132;51.972;4.450;2023-02-16T04:53:40;102182.56;;;5.68;100.00
69836;BME280;57132;51.972;4.450;2023-02-16T04:56:09;102164.91;;;5.69;100.00
69836;BME280;57132;51.972;4.450;2023-02-16T04:58:36;102174.63;;;5.68;100.00
69836;BME280;57132;51.972;4.450;2023-02-16T05:01:01;102179.88;;;5.70;100.00
69836;BME280;57132;51.972;4.450;2023-02-16T05:03:27;102174.53;;;5.72;100.00
69836;BME280;57132;51.972;4.450;2023-02-16T05:05:52;102170.97;;;5.73;100.00
69836;BME280;57132;51.972;4.450;2023-02-16T05:08:17;102176.25;;;5.74;100.00
69836;BME280;57132;51.972;4.450;2023-02-16T05:10:43;102172.69;;;5.74;100.00
69836;BME280;57132;51.972;4.450;2023-02-16T05:13:09;102161.25;;;5.73;100.00
69836;BME280;57132;51.972;4.450;2023-02-16T05:15:55;102174.34;;;5.78;100.00
69836;BME280;57132;51.972;4.450;2023-02-16T05:18:20;102175.25;;;5.77;100.00
69836;BME280;57132;51.972;4.450;2023-02-16T05:20:45;102159.44;;;5.74;100.00
69836;BME280;57132;51.972;4.450;2023-02-16T05:23:29;102149.78;;;5.73;100.00
69836;BME280;57132;51.972;4.450;2023-02-16T05:25:54;102162.22;;;5.71;100.00
69836;BME280;57132;51.972;4.450;2023-02-16T05:28:20;102167.50;;;5.71;100.00
69836;BME280;57132;51.972;4.450;2023-02-16T05:30:45;102160.47;;;5.70;100.00
69836;BME280;57132;51.972;4.450;2023-02-16T05:33:12;102160.47;;;5.70;100.00
69836;BME280;57132;51.972;4.450;2023-02-16T05:35:38;102160.50;;;5.68;100.00
69836;BME280;57132;51.972;4.450;2023-02-16T05:38:03;102176.41;;;5.68;100.00
69836;BME280;57132;51.972;4.450;2023-02-16T05:40:29;102165.81;;;5.68;100.00
69836;BME280;57132;51.972;4.450;2023-02-16T05:42:54;102156.13;;;5.67;100.00
69836;BME280;57132;51.972;4.450;2023-02-16T05:45:21;102157.91;;;5.66;100.00
69836;BME280;57132;51.972;4.450;2023-02-16T05:47:46;102156.16;;;5.65;100.00
69836;BME280;57132;51.972;4.450;2023-02-16T05:50:11;102157.03;;;5.66;100.00
69836;BME280;57132;51.972;4.450;2023-02-16T05:52:37;102161.56;;;5.62;100.00
69836;BME280;57132;51.972;4.450;2023-02-16T05:55:03;102164.22;;;5.62;100.00
69836;BME280;57132;51.972;4.450;2023-02-16T05:57:29;102162.44;;;5.63;100.00
69836;BME280;57132;51.972;4.450;2023-02-16T05:59:54;102163.31;;;5.63;100.00
69836;BME280;57132;51.972;4.450;2023-02-16T06:02:21;102166.88;;;5.62;100.00
69836;BME280;57132;51.972;4.450;2023-02-16T06:04:46;102169.53;;;5.61;100.00
69836;BME280;57132;51.972;4.450;2023-02-16T06:07:11;102165.09;;;5.61;100.00
69836;BME280;57132;51.972;4.450;2023-02-16T06:09:37;102162.47;;;5.61;100.00
69836;BME280;57132;51.972;4.450;2023-02-16T06:12:04;102167.75;;;5.61;100.00
69836;BME280;57132;51.972;4.450;2023-02-16T06:14:29;102166.91;;;5.61;100.00
69836;BME280;57132;51.972;4.450;2023-02-16T06:16:54;102172.16;;;5.62;100.00
69836;BME280;57132;51.972;4.450;2023-02-16T06:19:21;102179.19;;;5.63;100.00
69836;BME280;57132;51.972;4.450;2023-02-16T06:21:47;102162.38;;;5.64;100.00
69836;BME280;57132;51.972;4.450;2023-02-16T06:24:13;102159.66;;;5.67;100.00
69836;BME280;57132;51.972;4.450;2023-02-16T06:26:38;102159.59;;;5.69;100.00
69836;BME280;57132;51.972;4.450;2023-02-16T06:29:05;102161.28;;;5.72;100.00
69836;BME280;57132;51.972;4.450;2023-02-16T06:31:30;102169.25;;;5.72;100.00
69836;BME280;57132;51.972;4.450;2023-02-16T06:33:56;102165.72;;;5.71;100.00
69836;BME280;57132;51.972;4.450;2023-02-16T06:36:22;102166.50;;;5.75;100.00
69836;BME280;57132;51.972;4.450;2023-02-16T06:38:48;102172.63;;;5.77;100.00
69836;BME280;57132;51.972;4.450;2023-02-16T06:41:14;102171.75;;;5.76;100.00
69836;BME280;57132;51.972;4.450;2023-02-16T06:44:02;102179.66;;;5.78;100.00
69836;BME280;57132;51.972;4.450;2023-02-16T06:46:28;102192.81;;;5.81;100.00
69836;BME280;57132;51.972;4.450;2023-02-16T06:48:53;102197.16;;;5.83;100.00
69836;BME280;57132;51.972;4.450;2023-02-16T06:51:19;102195.28;;;5.87;100.00
69836;BME280;57132;51.972;4.450;2023-02-16T06:53:45;102195.22;;;5.90;100.00
69836;BME280;57132;51.972;4.450;2023-02-16T06:56:10;102193.41;;;5.92;100.00
69836;BME280;57132;51.972;4.450;2023-02-16T06:58:37;102189.81;;;5.95;100.00
69836;BME280;57132;51.972;4.450;2023-02-16T07:01:02;102197.69;;;5.96;100.00
69836;BME280;57132;51.972;4.450;2023-02-16T07:03:28;102200.25;;;5.99;100.00
69836;BME280;57132;51.972;4.450;2023-02-16T07:05:53;102197.56;;;6.01;100.00
69836;BME280;57132;51.972;4.450;2023-02-16T07:08:19;102202.91;;;5.99;100.00
69836;BME280;57132;51.972;4.450;2023-02-16T07:10:45;102194.09;;;5.99;100.00
69836;BME280;57132;51.972;4.450;2023-02-16T07:13:11;102194.03;;;6.00;100.00
69836;BME280;57132;51.972;4.450;2023-02-16T07:15:38;102193.16;;;6.00;100.00
69836;BME280;57132;51.972;4.450;2023-02-16T07:18:04;102189.56;;;6.02;100.00
69836;BME280;57132;51.972;4.450;2023-02-16T07:20:30;102198.31;;;6.04;100.00
69836;BME280;57132;51.972;4.450;2023-02-16T07:22:56;102200.94;;;6.06;100.00
69836;BME280;57132;51.972;4.450;2023-02-16T07:25:21;102203.53;;;6.07;100.00
69836;BME280;57132;51.972;4.450;2023-02-16T07:27:49;102202.63;;;6.08;100.00
69836;BME280;57132;51.972;4.450;2023-02-16T07:30:15;102208.75;;;6.10;100.00
69836;BME280;57132;51.972;4.450;2023-02-16T07:32:41;102207.78;;;6.13;100.00
69836;BME280;57132;51.972;4.450;2023-02-16T07:35:07;102207.69;;;6.16;100.00
69836;BME280;57132;51.972;4.450;2023-02-16T07:37:33;102215.50;;;6.21;100.00
69836;BME280;57132;51.972;4.450;2023-02-16T07:39:58;102219.72;;;6.28;100.00
69836;BME280;57132;51.972;4.450;2023-02-16T07:42:24;102221.34;;;6.32;100.00
69836;BME280;57132;51.972;4.450;2023-02-16T07:44:49;102221.19;;;6.36;100.00
69836;BME280;57132;51.972;4.450;2023-02-16T07:47:15;102228.22;;;6.39;100.00
69836;BME280;57132;51.972;4.450;2023-02-16T07:49:40;102228.16;;;6.40;100.00
69836;BME280;57132;51.972;4.450;2023-02-16T07:52:06;102231.66;;;6.41;100.00
69836;BME280;57132;51.972;4.450;2023-02-16T07:54:31;102237.81;;;6.43;100.00
69836;BME280;57132;51.972;4.450;2023-02-16T07:56:57;102242.25;;;6.43;100.00
69836;BME280;57132;51.972;4.450;2023-02-16T07:59:23;102239.59;;;6.43;100.00
69836;BME280;57132;51.972;4.450;2023-02-16T08:01:48;102246.72;;;6.40;100.00
69836;BME280;57132;51.972;4.450;2023-02-16T08:04:13;102236.34;;;6.33;100.00
69836;BME280;57132;51.972;4.450;2023-02-16T08:06:40;102239.28;;;6.24;100.00
69836;BME280;57132;51.972;4.450;2023-02-16T08:09:05;102252.72;;;6.18;100.00
69836;BME280;57132;51.972;4.450;2023-02-16T08:11:31;102247.53;;;6.13;100.00
69836;BME280;57132;51.972;4.450;2023-02-16T08:13:59;102251.19;;;6.09;100.00
69836;BME280;57132;51.972;4.450;2023-02-16T08:16:26;102245.13;;;6.05;100.00
69836;BME280;57132;51.972;4.450;2023-02-16T08:18:54;102246.97;;;6.02;100.00
69836;BME280;57132;51.972;4.450;2023-02-16T08:21:22;102240.00;;;5.99;100.00
69836;BME280;57132;51.972;4.450;2023-02-16T08:23:53;102248.03;;;5.96;100.00
69836;BME280;57132;51.972;4.450;2023-02-16T08:26:20;102252.53;;;5.94;100.00
69836;BME280;57132;51.972;4.450;2023-02-16T08:28:47;102257.88;;;5.93;100.00
69836;BME280;57132;51.972;4.450;2023-02-16T08:31:25;102254.38;;;5.90;100.00
69836;BME280;57132;51.972;4.450;2023-02-16T08:33:53;102252.59;;;5.91;100.00
69836;BME280;57132;51.972;4.450;2023-02-16T08:36:27;102255.25;;;5.91;100.00
69836;BME280;57132;51.972;4.450;2023-02-16T08:38:54;102257.88;;;5.91;100.00
69836;BME280;57132;51.972;4.450;2023-02-16T08:41:21;102246.41;;;5.92;100.00
69836;BME280;57132;51.972;4.450;2023-02-16T08:43:48;102252.53;;;5.94;100.00
69836;BME280;57132;51.972;4.450;2023-02-16T08:46:14;102240.97;;;5.97;100.00
69836;BME280;57132;51.972;4.450;2023-02-16T08:48:40;102250.56;;;6.01;100.00
69836;BME280;57132;51.972;4.450;2023-02-16T08:51:06;102246.00;;;6.06;100.00
69836;BME280;57132;51.972;4.450;2023-02-16T08:53:32;102253.78;;;6.12;100.00
69836;BME280;57132;51.972;4.450;2023-02-16T08:55:59;102252.63;;;6.21;100.00
69836;BME280;57132;51.972;4.450;2023-02-16T08:58:27;102257.75;;;6.27;100.00
69836;BME280;57132;51.972;4.450;2023-02-16T09:00:53;102248.78;;;6.31;100.00
69836;BME280;57132;51.972;4.450;2023-02-16T09:03:18;102241.63;;;6.34;100.00
69836;BME280;57132;51.972;4.450;2023-02-16T09:05:45;102250.22;;;6.41;100.00
69836;BME280;57132;51.972;4.450;2023-02-16T09:08:10;102253.63;;;6.46;100.00
69836;BME280;57132;51.972;4.450;2023-02-16T09:10:36;102251.84;;;6.47;100.00
69836;BME280;57132;51.972;4.450;2023-02-16T09:13:01;102257.88;;;6.52;100.00
69836;BME280;57132;51.972;4.450;2023-02-16T09:15:27;102256.91;;;6.54;100.00
69836;BME280;57132;51.972;4.450;2023-02-16T09:17:52;102244.34;;;6.59;100.00
69836;BME280;57132;51.972;4.450;2023-02-16T09:20:18;102235.44;;;6.62;100.00
69836;BME280;57132;51.972;4.450;2023-02-16T09:22:44;102238.97;;;6.62;100.00
69836;BME280;57132;51.972;4.450;2023-02-16T09:25:12;102234.31;;;6.69;100.00
69836;BME280;57132;51.972;4.450;2023-02-16T09:27:37;102234.97;;;6.77;100.00
69836;BME280;57132;51.972;4.450;2023-02-16T09:30:03;102239.97;;;6.85;100.00
69836;BME280;57132;51.972;4.450;2023-02-16T09:32:30;102243.28;;;6.93;100.00
69836;BME280;57132;51.972;4.450;2023-02-16T09:34:56;102242.09;;;7.02;100.00
69836;BME280;57132;51.972;4.450;2023-02-16T09:37:22;102244.28;;;7.15;100.00
69836;BME280;57132;51.972;4.450;2023-02-16T09:39:47;102250.00;;;7.30;100.00
69836;BME280;57132;51.972;4.450;2023-02-16T09:45:08;102233.94;;;7.58;100.00
69836;BME280;57132;51.972;4.450;2023-02-16T09:47:39;102230.56;;;7.78;100.00
69836;BME280;57132;51.972;4.450;2023-02-16T09:50:16;102222.78;;;7.73;100.00
69836;BME280;57132;51.972;4.450;2023-02-16T09:53:05;102219.88;;;7.79;100.00
69836;BME280;57132;51.972;4.450;2023-02-16T09:55:45;102216.81;;;7.90;100.00
69836;BME280;57132;51.972;4.450;2023-02-16T09:58:28;102218.31;;;7.97;100.00
69836;BME280;57132;51.972;4.450;2023-02-16T10:08:31;102221.50;;;7.83;100.00
69836;BME280;57132;51.972;4.450;2023-02-16T10:11:07;102203.88;;;7.81;100.00
69836;BME280;57132;51.972;4.450;2023-02-16T10:13:55;102200.97;;;7.87;100.00
69836;BME280;57132;51.972;4.450;2023-02-16T10:16:29;102203.41;;;7.93;100.00
69836;BME280;57132;51.972;4.450;2023-02-16T10:18:57;102197.84;;;7.99;100.00
69836;BME280;57132;51.972;4.450;2023-02-16T10:21:26;102200.50;;;7.99;100.00
69836;BME280;57132;51.972;4.450;2023-02-16T10:23:57;102203.47;;;7.92;100.00
69836;BME280;57132;51.972;4.450;2023-02-16T10:26:31;102221.66;;;8.02;100.00
69836;BME280;57132;51.972;4.450;2023-02-16T10:29:12;102210.28;;;7.99;100.00
69836;BME280;57132;51.972;4.450;2023-02-16T10:32:09;102212.84;;;8.02;100.00
69836;BME280;57132;51.972;4.450;2023-02-16T10:35:15;102212.75;;;8.03;100.00
69836;BME280;57132;51.972;4.450;2023-02-16T10:38:06;102220.06;;;7.98;100.00
69836;BME280;57132;51.972;4.450;2023-02-16T10:43:38;102225.94;;;7.83;100.00
69836;BME280;57132;51.972;4.450;2023-02-16T10:46:09;102231.97;;;7.88;100.00
69836;BME280;57132;51.972;4.450;2023-02-16T10:48:36;102226.47;;;7.93;100.00
69836;BME280;57132;51.972;4.450;2023-02-16T10:51:06;102226.69;;;7.86;100.00
69836;BME280;57132;51.972;4.450;2023-02-16T10:53:43;102229.19;;;7.91;100.00
69836;BME280;57132;51.972;4.450;2023-02-16T10:59:14;102222.19;;;8.12;100.00
69836;BME280;57132;51.972;4.450;2023-02-16T11:01:45;102208.88;;;8.35;100.00
69836;BME280;57132;51.972;4.450;2023-02-16T11:07:15;102201.84;;;8.56;100.00
69836;BME280;57132;51.972;4.450;2023-02-16T11:09:43;102216.19;;;8.74;100.00
69836;BME280;57132;51.972;4.450;2023-02-16T11:12:38;102203.75;;;8.75;100.00
69836;BME280;57132;51.972;4.450;2023-02-16T11:17:50;102213.00;;;9.08;100.00
69836;BME280;57132;51.972;4.450;2023-02-16T11:23:26;102213.16;;;9.65;100.00
69836;BME280;57132;51.972;4.450;2023-02-16T11:28:46;102205.47;;;9.78;100.00
69836;BME280;57132;51.972;4.450;2023-02-16T11:31:31;102208.69;;;9.66;100.00
69836;BME280;57132;51.972;4.450;2023-02-16T11:36:38;102198.94;;;9.46;100.00
69836;BME280;57132;51.972;4.450;2023-02-16T11:41:56;102196.78;;;9.54;100.00
69836;BME280;57132;51.972;4.450;2023-02-16T11:44:35;102192.69;;;9.86;100.00
69836;BME280;57132;51.972;4.450;2023-02-16T11:47:06;102201.53;;;10.24;100.00
69836;BME280;57132;51.972;4.450;2023-02-16T11:49:38;102192.38;;;10.49;100.00
69836;BME280;57132;51.972;4.450;2023-02-16T11:54:51;102184.69;;;10.43;100.00
69836;BME280;57132;51.972;4.450;2023-02-16T11:57:26;102180.81;;;10.31;100.00
69836;BME280;57132;51.972;4.450;2023-02-16T11:59:54;102172.06;;;10.27;100.00
69836;BME280;57132;51.972;4.450;2023-02-16T12:16:47;102144.78;;;10.93;100.00
69836;BME280;57132;51.972;4.450;2023-02-16T12:19:35;102133.06;;;11.13;100.00
69836;BME280;57132;51.972;4.450;2023-02-16T12:22:27;102124.78;;;11.18;100.00
69836;BME280;57132;51.972;4.450;2023-02-16T12:25:20;102129.56;;;11.28;100.00
69836;BME280;57132;51.972;4.450;2023-02-16T12:27:58;102129.38;;;11.31;100.00
69836;BME280;57132;51.972;4.450;2023-02-16T12:36:27;102122.91;;;11.02;100.00
69836;BME280;57132;51.972;4.450;2023-02-16T12:42:15;102124.94;;;11.15;100.00
69836;BME280;57132;51.972;4.450;2023-02-16T12:44:58;102119.53;;;10.99;100.00
69836;BME280;57132;51.972;4.450;2023-02-16T12:47:36;102120.34;;;11.01;100.00
69836;BME280;57132;51.972;4.450;2023-02-16T12:50:14;102115.50;;;11.07;100.00
69836;BME280;57132;51.972;4.450;2023-02-16T12:53:01;102124.03;;;10.98;100.00
69836;BME280;57132;51.972;4.450;2023-02-16T12:55:39;102120.09;;;10.88;100.00
69836;BME280;57132;51.972;4.450;2023-02-16T13:03:37;102084.69;;;10.50;100.00
69836;BME280;57132;51.972;4.450;2023-02-16T13:06:23;102096.97;;;10.52;100.00
69836;BME280;57132;51.972;4.450;2023-02-16T13:11:58;102062.50;;;10.48;100.00
69836;BME280;57132;51.972;4.450;2023-02-16T13:14:31;102073.28;;;10.46;100.00
69836;BME280;57132;51.972;4.450;2023-02-16T13:17:03;102055.03;;;10.37;100.00
69836;BME280;57132;51.972;4.450;2023-02-16T13:19:34;102068.38;;;10.37;100.00
69836;BME280;57132;51.972;4.450;2023-02-16T13:22:22;102064.94;;;10.35;100.00
69836;BME280;57132;51.972;4.450;2023-02-16T13:30:37;102072.03;;;10.17;100.00
69836;BME280;57132;51.972;4.450;2023-02-16T13:36:08;102038.91;;;10.04;100.00
69836;BME280;57132;51.972;4.450;2023-02-16T13:38:41;102040.69;;;10.03;100.00
69836;BME280;57132;51.972;4.450;2023-02-16T13:44:16;102036.22;;;10.04;100.00
69836;BME280;57132;51.972;4.450;2023-02-16T13:46:46;102039.91;;;10.01;100.00
69836;BME280;57132;51.972;4.450;2023-02-16T13:49:43;102024.69;;;10.03;100.00
69836;BME280;57132;51.972;4.450;2023-02-16T13:52:32;102027.22;;;10.06;100.00
69836;BME280;57132;51.972;4.450;2023-02-16T13:55:00;102020.13;;;10.05;100.00
69836;BME280;57132;51.972;4.450;2023-02-16T14:14:30;102020.59;;;9.96;100.00
69836;BME280;57132;51.972;4.450;2023-02-16T14:17:30;101992.50;;;9.89;100.00
69836;BME280;57132;51.972;4.450;2023-02-16T14:20:25;101993.81;;;9.80;100.00
69836;BME280;57132;51.972;4.450;2023-02-16T14:22:53;101990.56;;;9.74;100.00
69836;BME280;57132;51.972;4.450;2023-02-16T14:33:15;101999.84;;;9.67;100.00
69836;BME280;57132;51.972;4.450;2023-02-16T14:38:56;102000.84;;;9.45;100.00
69836;BME280;57132;51.972;4.450;2023-02-16T14:47:02;102010.56;;;9.08;100.00
69836;BME280;57132;51.972;4.450;2023-02-16T14:50:21;101995.03;;;8.99;100.00
69836;BME280;57132;51.972;4.450;2023-02-16T14:55:59;102022.44;;;9.01;100.00
69836;BME280;57132;51.972;4.450;2023-02-16T15:01:21;101990.13;;;9.09;100.00
69836;BME280;57132;51.972;4.450;2023-02-16T15:03:49;101996.97;;;9.15;100.00
69836;BME280;57132;51.972;4.450;2023-02-16T15:06:33;101979.13;;;9.17;100.00
69836;BME280;57132;51.972;4.450;2023-02-16T15:09:24;101979.56;;;9.07;100.00
69836;BME280;57132;51.972;4.450;2023-02-16T15:11:58;101986.16;;;8.99;100.00
69836;BME280;57132;51.972;4.450;2023-02-16T15:17:32;101980.25;;;8.92;100.00
69836;BME280;57132;51.972;4.450;2023-02-16T15:22:58;101984.50;;;8.96;100.00
69836;BME280;57132;51.972;4.450;2023-02-16T15:30:32;101994.66;;;9.07;100.00
69836;BME280;57132;51.972;4.450;2023-02-16T15:33:04;101981.34;;;9.07;100.00
69836;BME280;57132;51.972;4.450;2023-02-16T15:35:38;101977.88;;;9.05;100.00
69836;BME280;57132;51.972;4.450;2023-02-16T15:38:23;101986.88;;;9.02;100.00
69836;BME280;57132;51.972;4.450;2023-02-16T15:40:53;101984.38;;;8.99;100.00
69836;BME280;57132;51.972;4.450;2023-02-16T15:43:42;101989.00;;;8.94;100.00